sensor_id;sensor_type;location;lat;lon;timestamp;pressure;altitude;pressure_sealevel;temperature;humidity
36234;BME280;43467;50.890;5.982;2024-03-02T00:00:21;98537.16;;;11.75;54.92
36234;BME280;43467;50.890;5.982;2024-03-02T00:02:48;98518.22;;;11.69;54.72
36234;BME280;43467;50.890;5.982;2024-03-02T00:05:20;98530.38;;;11.71;54.89
36234;BME280;43467;50.890;5.982;2024-03-02T00:07:55;98530.56;;;11.81;54.45
36234;BME280;43467;50.890;5.982;2024-03-02T00:10:37;98532.25;;;11.82;54.94
36234;BME280;43467;50.890;5.982;2024-03-02T00:13:05;98539.47;;;11.80;54.95
36234;BME280;43467;50.890;5.982;2024-03-02T00:15:46;98540.66;;;11.76;54.85
36234;BME280;43467;50.890;5.982;2024-03-02T00:18:13;98538.97;;;11.75;55.10
36234;BME280;43467;50.890;5.982;2024-03-02T00:20:40;98540.22;;;11.82;55.00
36234;BME280;43467;50.890;5.982;2024-03-02T00:23:07;98540.22;;;11.82;54.99
36234;BME280;43467;50.890;5.982;2024-03-02T00:28:21;98538.50;;;11.81;55.47
36234;BME280;43467;50.890;5.982;2024-03-02T00:31:10;98539.22;;;11.83;55.18
36234;BME280;43467;50.890;5.982;2024-03-02T00:33:45;98532.97;;;11.84;55.22
36234;BME280;43467;50.890;5.982;2024-03-02T00:36:12;98533.69;;;11.86;55.23
36234;BME280;43467;50.890;5.982;2024-03-02T00:38:46;98537.31;;;11.85;55.42
36234;BME280;43467;50.890;5.982;2024-03-02T00:44:00;98534.66;;;11.85;55.49
36234;BME280;43467;50.890;5.982;2024-03-02T00:46:32;98515.09;;;11.75;55.48
36234;BME280;43467;50.890;5.982;2024-03-02T00:48:59;98532.34;;;11.91;55.57
36234;BME280;43467;50.890;5.982;2024-03-02T00:51:28;98527.56;;;11.85;55.49
36234;BME280;43467;50.890;5.982;2024-03-02T00:53:55;98523.31;;;11.72;55.64
36234;BME280;43467;50.890;5.982;2024-03-02T00:56:22;98529.81;;;11.79;55.74
36234;BME280;43467;50.890;5.982;2024-03-02T00:58:48;98537.31;;;11.85;55.74
36234;BME280;43467;50.890;5.982;2024-03-02T01:01:13;98534.16;;;11.80;56.03
36234;BME280;43467;50.890;5.982;2024-03-02T01:03:39;98550.91;;;11.80;56.03
36234;BME280;43467;50.890;5.982;2024-03-02T01:06:04;98556.59;;;11.87;55.67
36234;BME280;43467;50.890;5.982;2024-03-02T01:08:30;98564.19;;;11.80;55.93
36234;BME280;43467;50.890;5.982;2024-03-02T01:10:56;98566.22;;;11.77;56.44
36234;BME280;43467;50.890;5.982;2024-03-02T01:13:24;98558.44;;;11.62;56.70
36234;BME280;43467;50.890;5.982;2024-03-02T01:15:50;98573.94;;;11.80;56.28
36234;BME280;43467;50.890;5.982;2024-03-02T01:18:15;98568.19;;;11.62;56.87
36234;BME280;43467;50.890;5.982;2024-03-02T01:20:41;98582.78;;;11.56;57.62
36234;BME280;43467;50.890;5.982;2024-03-02T01:23:06;98596.22;;;11.42;58.91
36234;BME280;43467;50.890;5.982;2024-03-02T01:25:32;98619.91;;;11.09;60.20
36234;BME280;43467;50.890;5.982;2024-03-02T01:27:57;98626.53;;;10.54;64.72
36234;BME280;43467;50.890;5.982;2024-03-02T01:30:23;98614.72;;;10.47;65.37
36234;BME280;43467;50.890;5.982;2024-03-02T01:32:48;98620.66;;;10.25;66.41
36234;BME280;43467;50.890;5.982;2024-03-02T01:35:13;98632.06;;;10.01;67.80
36234;BME280;43467;50.890;5.982;2024-03-02T01:37:40;98618.00;;;10.00;67.47
36234;BME280;43467;50.890;5.982;2024-03-02T01:40:06;98628.66;;;9.99;68.03
36234;BME280;43467;50.890;5.982;2024-03-02T01:42:36;98619.69;;;10.01;68.16
36234;BME280;43467;50.890;5.982;2024-03-02T01:45:02;98616.09;;;9.90;68.61
36234;BME280;43467;50.890;5.982;2024-03-02T01:47:27;98615.34;;;9.88;68.67
36234;BME280;43467;50.890;5.982;2024-03-02T01:49:53;98624.44;;;9.96;68.58
36234;BME280;43467;50.890;5.982;2024-03-02T01:52:18;98627.19;;;9.95;68.22
36234;BME280;43467;50.890;5.982;2024-03-02T01:54:43;98629.50;;;9.87;68.19
36234;BME280;43467;50.890;5.982;2024-03-02T01:57:09;98628.44;;;9.76;69.38
36234;BME280;43467;50.890;5.982;2024-03-02T01:59:35;98625.16;;;9.73;70.44
36234;BME280;43467;50.890;5.982;2024-03-02T02:02:00;98639.41;;;9.70;71.43
36234;BME280;43467;50.890;5.982;2024-03-02T02:04:26;98635.28;;;9.66;72.63
36234;BME280;43467;50.890;5.982;2024-03-02T02:06:53;98640.38;;;9.69;72.73
36234;BME280;43467;50.890;5.982;2024-03-02T02:09:19;98626.19;;;9.58;73.12
36234;BME280;43467;50.890;5.982;2024-03-02T02:11:44;98620.16;;;9.56;73.44
36234;BME280;43467;50.890;5.982;2024-03-02T02:14:10;98644.88;;;9.55;73.72
36234;BME280;43467;50.890;5.982;2024-03-02T02:16:36;98640.88;;;9.49;73.28
36234;BME280;43467;50.890;5.982;2024-03-02T02:19:02;98625.00;;;9.37;73.70
36234;BME280;43467;50.890;5.982;2024-03-02T02:21:27;98621.75;;;9.19;74.15
36234;BME280;43467;50.890;5.982;2024-03-02T02:23:52;98627.88;;;9.19;74.63
36234;BME280;43467;50.890;5.982;2024-03-02T02:26:18;98621.16;;;9.28;75.04
36234;BME280;43467;50.890;5.982;2024-03-02T02:28:43;98615.41;;;9.21;75.49
36234;BME280;43467;50.890;5.982;2024-03-02T02:31:13;98614.19;;;9.27;75.43
36234;BME280;43467;50.890;5.982;2024-03-02T02:33:42;98622.19;;;9.25;76.21
36234;BME280;43467;50.890;5.982;2024-03-02T02:36:08;98599.19;;;9.27;76.39
36234;BME280;43467;50.890;5.982;2024-03-02T02:38:39;98603.63;;;9.27;76.53
36234;BME280;43467;50.890;5.982;2024-03-02T02:41:05;98594.88;;;9.39;76.09
36234;BME280;43467;50.890;5.982;2024-03-02T02:43:31;98600.09;;;9.53;75.76
36234;BME280;43467;50.890;5.982;2024-03-02T02:45:56;98600.50;;;9.60;75.51
36234;BME280;43467;50.890;5.982;2024-03-02T02:48:22;98597.03;;;9.59;75.30
36234;BME280;43467;50.890;5.982;2024-03-02T02:50:47;98590.06;;;9.71;74.83
36234;BME280;43467;50.890;5.982;2024-03-02T02:53:13;98594.41;;;9.72;74.66
36234;BME280;43467;50.890;5.982;2024-03-02T02:55:39;98581.09;;;9.73;74.23
36234;BME280;43467;50.890;5.982;2024-03-02T02:58:08;98576.53;;;9.75;74.14
36234;BME280;43467;50.890;5.982;2024-03-02T03:00:34;98583.19;;;9.81;73.77
36234;BME280;43467;50.890;5.982;2024-03-02T03:02:59;98571.78;;;9.80;74.27
36234;BME280;43467;50.890;5.982;2024-03-02T03:05:24;98567.97;;;9.85;73.98
36234;BME280;43467;50.890;5.982;2024-03-02T03:07:50;98562.69;;;9.85;74.17
36234;BME280;43467;50.890;5.982;2024-03-02T03:10:16;98580.66;;;9.92;73.09
36234;BME280;43467;50.890;5.982;2024-03-02T03:12:42;98589.44;;;9.93;73.47
36234;BME280;43467;50.890;5.982;2024-03-02T03:15:09;98585.31;;;9.89;73.93
36234;BME280;43467;50.890;5.982;2024-03-02T03:17:35;98580.03;;;10.01;73.45
36234;BME280;43467;50.890;5.982;2024-03-02T03:20:01;98580.75;;;10.03;73.02
36234;BME280;43467;50.890;5.982;2024-03-02T03:22:26;98570.72;;;10.08;73.04
36234;BME280;43467;50.890;5.982;2024-03-02T03:24:52;98562.69;;;10.10;73.31
36234;BME280;43467;50.890;5.982;2024-03-02T03:27:18;98556.53;;;10.09;73.47
36234;BME280;43467;50.890;5.982;2024-03-02T03:29:45;98561.50;;;10.14;73.56
36234;BME280;43467;50.890;5.982;2024-03-02T03:32:10;98554.09;;;10.19;73.17
36234;BME280;43467;50.890;5.982;2024-03-02T03:34:35;98556.66;;;10.20;73.51
36234;BME280;43467;50.890;5.982;2024-03-02T03:37:02;98552.44;;;10.18;73.10
36234;BME280;43467;50.890;5.982;2024-03-02T03:39:28;98560.06;;;10.22;73.06
36234;BME280;43467;50.890;5.982;2024-03-02T03:41:54;98569.66;;;10.23;72.76
36234;BME280;43467;50.890;5.982;2024-03-02T03:44:19;98563.31;;;10.26;72.93
36234;BME280;43467;50.890;5.982;2024-03-02T03:46:44;98568.38;;;10.29;72.79
36234;BME280;43467;50.890;5.982;2024-03-02T03:49:11;98560.53;;;10.27;72.84
36234;BME280;43467;50.890;5.982;2024-03-02T03:51:36;98569.84;;;10.33;72.61
36234;BME280;43467;50.890;5.982;2024-03-02T03:54:01;98572.41;;;10.35;72.84
36234;BME280;43467;50.890;5.982;2024-03-02T03:56:27;98586.16;;;10.27;72.54
36234;BME280;43467;50.890;5.982;2024-03-02T03:58:52;98563.00;;;10.31;72.53
36234;BME280;43467;50.890;5.982;2024-03-02T04:01:18;98558.53;;;10.31;72.48
36234;BME280;43467;50.890;5.982;2024-03-02T04:03:43;98582.22;;;10.33;72.46
36234;BME280;43467;50.890;5.982;2024-03-02T04:06:09;98575.16;;;10.33;72.63
36234;BME280;43467;50.890;5.982;2024-03-02T04:08:34;98582.00;;;10.36;72.44
36234;BME280;43467;50.890;5.982;2024-03-02T04:11:00;98584.66;;;10.36;72.45
36234;BME280;43467;50.890;5.982;2024-03-02T04:13:25;98586.34;;;10.37;72.41
36234;BME280;43467;50.890;5.982;2024-03-02T04:15:50;98586.25;;;10.38;72.68
36234;BME280;43467;50.890;5.982;2024-03-02T04:18:16;98573.88;;;10.39;72.25
36234;BME280;43467;50.890;5.982;2024-03-02T04:20:41;98582.75;;;10.38;71.68
36234;BME280;43467;50.890;5.982;2024-03-02T04:23:07;98586.97;;;10.40;71.22
36234;BME280;43467;50.890;5.982;2024-03-02T04:25:33;98582.53;;;10.41;71.22
36234;BME280;43467;50.890;5.982;2024-03-02T04:27:58;98571.63;;;10.45;71.06
36234;BME280;43467;50.890;5.982;2024-03-02T04:30:24;98588.25;;;10.47;70.96
36234;BME280;43467;50.890;5.982;2024-03-02T04:32:50;98591.00;;;10.46;71.31
36234;BME280;43467;50.890;5.982;2024-03-02T04:35:16;98583.91;;;10.46;71.69
36234;BME280;43467;50.890;5.982;2024-03-02T04:37:41;98578.72;;;10.45;71.52
36234;BME280;43467;50.890;5.982;2024-03-02T04:40:07;98585.81;;;10.44;71.16
36234;BME280;43467;50.890;5.982;2024-03-02T04:42:36;98586.66;;;10.45;71.08
36234;BME280;43467;50.890;5.982;2024-03-02T04:45:02;98588.97;;;10.49;71.34
36234;BME280;43467;50.890;5.982;2024-03-02T04:47:27;98587.19;;;10.50;70.47
36234;BME280;43467;50.890;5.982;2024-03-02T04:49:53;98581.56;;;10.54;70.71
36234;BME280;43467;50.890;5.982;2024-03-02T04:52:18;98584.34;;;10.40;71.02
36234;BME280;43467;50.890;5.982;2024-03-02T04:54:44;98591.88;;;10.34;67.76
36234;BME280;43467;50.890;5.982;2024-03-02T04:57:28;98592.19;;;10.29;67.67
36234;BME280;43467;50.890;5.982;2024-03-02T04:59:53;98585.72;;;10.33;67.50
36234;BME280;43467;50.890;5.982;2024-03-02T05:02:18;98593.56;;;10.35;67.06
36234;BME280;43467;50.890;5.982;2024-03-02T05:04:44;98593.66;;;10.33;66.90
36234;BME280;43467;50.890;5.982;2024-03-02T05:07:10;98588.47;;;10.32;65.89
36234;BME280;43467;50.890;5.982;2024-03-02T05:09:35;98594.41;;;10.35;66.03
36234;BME280;43467;50.890;5.982;2024-03-02T05:14:30;98597.78;;;10.37;65.78
36234;BME280;43467;50.890;5.982;2024-03-02T05:16:55;98598.00;;;10.34;64.69
36234;BME280;43467;50.890;5.982;2024-03-02T05:19:21;98600.44;;;10.37;64.80
36234;BME280;43467;50.890;5.982;2024-03-02T05:21:46;98595.13;;;10.37;64.42
36234;BME280;43467;50.890;5.982;2024-03-02T05:24:11;98604.44;;;10.43;64.80
36234;BME280;43467;50.890;5.982;2024-03-02T05:26:37;98616.94;;;10.41;63.86
36234;BME280;43467;50.890;5.982;2024-03-02T05:29:02;98606.78;;;10.35;64.09
36234;BME280;43467;50.890;5.982;2024-03-02T05:31:28;98609.75;;;10.30;63.67
36234;BME280;43467;50.890;5.982;2024-03-02T05:33:53;98609.13;;;10.39;64.00
36234;BME280;43467;50.890;5.982;2024-03-02T05:36:19;98612.50;;;10.41;63.88
36234;BME280;43467;50.890;5.982;2024-03-02T05:38:45;98613.66;;;10.37;63.82
36234;BME280;43467;50.890;5.982;2024-03-02T05:41:11;98617.78;;;10.29;63.71
36234;BME280;43467;50.890;5.982;2024-03-02T05:43:37;98619.38;;;10.31;63.43
36234;BME280;43467;50.890;5.982;2024-03-02T05:46:02;98614.59;;;10.36;63.75
36234;BME280;43467;50.890;5.982;2024-03-02T05:48:28;98615.22;;;10.40;63.41
36234;BME280;43467;50.890;5.982;2024-03-02T05:50:53;98612.50;;;10.41;63.74
36234;BME280;43467;50.890;5.982;2024-03-02T05:53:18;98615.13;;;10.41;63.45
36234;BME280;43467;50.890;5.982;2024-03-02T05:55:44;98615.88;;;10.43;63.39
36234;BME280;43467;50.890;5.982;2024-03-02T05:58:10;98624.25;;;10.37;63.05
36234;BME280;43467;50.890;5.982;2024-03-02T06:00:54;98626.66;;;10.40;63.38
36234;BME280;43467;50.890;5.982;2024-03-02T06:03:20;98624.00;;;10.40;63.63
36234;BME280;43467;50.890;5.982;2024-03-02T06:05:45;98637.06;;;10.43;63.34
36234;BME280;43467;50.890;5.982;2024-03-02T06:08:11;98638.31;;;10.38;63.03
36234;BME280;43467;50.890;5.982;2024-03-02T06:10:36;98642.66;;;10.39;63.54
36234;BME280;43467;50.890;5.982;2024-03-02T06:13:01;98641.81;;;10.38;63.20
36234;BME280;43467;50.890;5.982;2024-03-02T06:15:27;98639.69;;;10.43;63.51
36234;BME280;43467;50.890;5.982;2024-03-02T06:17:52;98649.22;;;10.46;63.70
36234;BME280;43467;50.890;5.982;2024-03-02T06:20:17;98650.28;;;10.43;63.40
36234;BME280;43467;50.890;5.982;2024-03-02T06:22:43;98653.75;;;10.44;63.13
36234;BME280;43467;50.890;5.982;2024-03-02T06:25:08;98645.81;;;10.44;63.22
36234;BME280;43467;50.890;5.982;2024-03-02T06:27:33;98649.31;;;10.44;63.51
36234;BME280;43467;50.890;5.982;2024-03-02T06:29:59;98643.72;;;10.36;63.00
36234;BME280;43467;50.890;5.982;2024-03-02T06:32:24;98647.09;;;10.38;63.14
36234;BME280;43467;50.890;5.982;2024-03-02T06:34:50;98654.91;;;10.27;63.16
36234;BME280;43467;50.890;5.982;2024-03-02T06:37:15;98655.13;;;10.24;63.23
36234;BME280;43467;50.890;5.982;2024-03-02T06:39:41;98656.22;;;10.21;63.44
36234;BME280;43467;50.890;5.982;2024-03-02T06:42:07;98665.72;;;10.24;63.11
36234;BME280;43467;50.890;5.982;2024-03-02T06:44:34;98675.34;;;10.25;63.48
36234;BME280;43467;50.890;5.982;2024-03-02T06:46:59;98671.53;;;10.29;63.42
36234;BME280;43467;50.890;5.982;2024-03-02T06:49:24;98669.22;;;10.24;63.64
36234;BME280;43467;50.890;5.982;2024-03-02T06:51:50;98676.44;;;10.22;63.69
36234;BME280;43467;50.890;5.982;2024-03-02T06:54:15;98668.81;;;10.18;63.70
36234;BME280;43467;50.890;5.982;2024-03-02T06:56:40;98670.34;;;10.08;63.67
36234;BME280;43467;50.890;5.982;2024-03-02T06:59:06;98684.31;;;10.10;63.99
36234;BME280;43467;50.890;5.982;2024-03-02T07:01:32;98675.84;;;10.05;63.88
36234;BME280;43467;50.890;5.982;2024-03-02T07:03:57;98682.63;;;10.09;64.39
36234;BME280;43467;50.890;5.982;2024-03-02T07:06:23;98688.31;;;10.03;64.12
36234;BME280;43467;50.890;5.982;2024-03-02T07:08:48;98683.34;;;9.98;64.46
36234;BME280;43467;50.890;5.982;2024-03-02T07:11:14;98692.25;;;10.10;63.92
36234;BME280;43467;50.890;5.982;2024-03-02T07:13:39;98688.44;;;10.14;64.09
36234;BME280;43467;50.890;5.982;2024-03-02T07:16:04;98697.13;;;10.16;64.03
36234;BME280;43467;50.890;5.982;2024-03-02T07:18:35;98697.69;;;10.21;63.69
36234;BME280;43467;50.890;5.982;2024-03-02T07:21:07;98701.91;;;10.23;63.88
36234;BME280;43467;50.890;5.982;2024-03-02T07:23:32;98702.53;;;10.27;63.45
36234;BME280;43467;50.890;5.982;2024-03-02T07:25:57;98705.00;;;10.30;63.92
36234;BME280;43467;50.890;5.982;2024-03-02T07:28:26;98698.84;;;10.30;63.42
36234;BME280;43467;50.890;5.982;2024-03-02T07:31:03;98704.22;;;10.28;63.17
36234;BME280;43467;50.890;5.982;2024-03-02T07:33:30;98708.34;;;10.32;63.20
36234;BME280;43467;50.890;5.982;2024-03-02T07:35:55;98703.69;;;10.36;63.26
36234;BME280;43467;50.890;5.982;2024-03-02T07:38:21;98711.13;;;10.43;63.25
36234;BME280;43467;50.890;5.982;2024-03-02T07:40:48;98712.16;;;10.53;63.22
36234;BME280;43467;50.890;5.982;2024-03-02T07:43:19;98718.94;;;10.57;62.73
36234;BME280;43467;50.890;5.982;2024-03-02T07:45:45;98708.91;;;10.62;62.93
36234;BME280;43467;50.890;5.982;2024-03-02T07:48:10;98702.75;;;10.62;62.85
36234;BME280;43467;50.890;5.982;2024-03-02T07:50:36;98714.72;;;10.67;62.62
36234;BME280;43467;50.890;5.982;2024-03-02T07:53:02;98712.88;;;10.68;61.76
36234;BME280;43467;50.890;5.982;2024-03-02T07:55:29;98699.97;;;10.76;62.20
36234;BME280;43467;50.890;5.982;2024-03-02T07:57:54;98715.53;;;10.81;61.47
36234;BME280;43467;50.890;5.982;2024-03-02T08:00:20;98718.31;;;10.79;61.74
36234;BME280;43467;50.890;5.982;2024-03-02T08:02:46;98714.81;;;10.79;61.70
36234;BME280;43467;50.890;5.982;2024-03-02T08:05:11;98723.81;;;10.63;61.87
36234;BME280;43467;50.890;5.982;2024-03-02T08:07:37;98724.78;;;10.62;61.97
36234;BME280;43467;50.890;5.982;2024-03-02T08:10:03;98732.41;;;10.67;62.19
36234;BME280;43467;50.890;5.982;2024-03-02T08:12:28;98717.25;;;10.69;62.47
36234;BME280;43467;50.890;5.982;2024-03-02T08:14:53;98719.56;;;10.73;61.76
36234;BME280;43467;50.890;5.982;2024-03-02T08:17:19;98724.22;;;10.70;61.33
36234;BME280;43467;50.890;5.982;2024-03-02T08:19:44;98724.78;;;10.62;61.50
36234;BME280;43467;50.890;5.982;2024-03-02T08:22:10;98724.13;;;10.71;61.60
36234;BME280;43467;50.890;5.982;2024-03-02T08:24:36;98729.13;;;10.63;60.87
36234;BME280;43467;50.890;5.982;2024-03-02T08:27:01;98726.25;;;10.66;60.90
36234;BME280;43467;50.890;5.982;2024-03-02T08:29:27;98728.78;;;10.68;61.04
36234;BME280;43467;50.890;5.982;2024-03-02T08:31:53;98722.22;;;10.61;61.05
36234;BME280;43467;50.890;5.982;2024-03-02T08:34:19;98718.63;;;10.62;60.54
36234;BME280;43467;50.890;5.982;2024-03-02T08:36:46;98716.84;;;10.62;60.71
36234;BME280;43467;50.890;5.982;2024-03-02T08:39:12;98716.63;;;10.65;60.47
36234;BME280;43467;50.890;5.982;2024-03-02T08:41:49;98717.69;;;10.63;59.89
36234;BME280;43467;50.890;5.982;2024-03-02T08:44:15;98719.78;;;10.70;59.84
36234;BME280;43467;50.890;5.982;2024-03-02T08:49:16;98717.25;;;10.69;59.42
36234;BME280;43467;50.890;5.982;2024-03-02T08:51:41;98725.25;;;10.80;59.71
36234;BME280;43467;50.890;5.982;2024-03-02T08:54:08;98724.75;;;10.88;58.88
36234;BME280;43467;50.890;5.982;2024-03-02T08:56:33;98722.91;;;10.88;58.71
36234;BME280;43467;50.890;5.982;2024-03-02T08:58:59;98722.28;;;10.97;58.53
36234;BME280;43467;50.890;5.982;2024-03-02T09:01:24;98711.50;;;10.88;58.37
36234;BME280;43467;50.890;5.982;2024-03-02T09:03:49;98720.94;;;10.92;58.24
36234;BME280;43467;50.890;5.982;2024-03-02T09:06:15;98725.78;;;10.98;58.77
36234;BME280;43467;50.890;5.982;2024-03-02T09:08:46;98717.41;;;11.04;58.63
36234;BME280;43467;50.890;5.982;2024-03-02T09:11:12;98723.94;;;11.11;58.24
36234;BME280;43467;50.890;5.982;2024-03-02T09:13:38;98724.34;;;11.17;57.91
36234;BME280;43467;50.890;5.982;2024-03-02T09:16:04;98721.38;;;11.22;57.75
36234;BME280;43467;50.890;5.982;2024-03-02T09:18:30;98719.13;;;11.29;57.96
36234;BME280;43467;50.890;5.982;2024-03-02T09:20:55;98715.59;;;11.41;57.59
36234;BME280;43467;50.890;5.982;2024-03-02T09:23:21;98723.06;;;11.47;57.38
36234;BME280;43467;50.890;5.982;2024-03-02T09:25:46;98719.88;;;11.54;56.75
36234;BME280;43467;50.890;5.982;2024-03-02T09:28:12;98725.78;;;11.58;56.35
36234;BME280;43467;50.890;5.982;2024-03-02T09:30:37;98719.19;;;11.63;56.80
36234;BME280;43467;50.890;5.982;2024-03-02T09:33:03;98712.81;;;11.66;56.16
36234;BME280;43467;50.890;5.982;2024-03-02T09:35:29;98714.81;;;11.75;56.07
36234;BME280;43467;50.890;5.982;2024-03-02T09:37:55;98709.75;;;11.72;55.41
36234;BME280;43467;50.890;5.982;2024-03-02T09:40:22;98715.97;;;11.71;54.33
36234;BME280;43467;50.890;5.982;2024-03-02T09:42:48;98711.75;;;11.69;54.65
36234;BME280;43467;50.890;5.982;2024-03-02T09:45:24;98717.47;;;11.75;55.07
36234;BME280;43467;50.890;5.982;2024-03-02T09:47:50;98718.75;;;11.70;54.10
36234;BME280;43467;50.890;5.982;2024-03-02T09:50:16;98713.53;;;11.81;55.04
36234;BME280;43467;50.890;5.982;2024-03-02T09:52:43;98719.09;;;11.89;54.86
36234;BME280;43467;50.890;5.982;2024-03-02T09:55:08;98722.38;;;11.92;54.16
36234;BME280;43467;50.890;5.982;2024-03-02T09:57:34;98711.75;;;11.92;53.95
36234;BME280;43467;50.890;5.982;2024-03-02T09:59:59;98705.16;;;11.98;54.97
36234;BME280;43467;50.890;5.982;2024-03-02T10:02:25;98710.81;;;12.04;54.14
36234;BME280;43467;50.890;5.982;2024-03-02T10:04:50;98705.41;;;12.06;54.41
36234;BME280;43467;50.890;5.982;2024-03-02T10:07:17;98706.22;;;12.06;53.68
36234;BME280;43467;50.890;5.982;2024-03-02T10:09:44;98711.34;;;12.09;53.81
36234;BME280;43467;50.890;5.982;2024-03-02T10:12:11;98701.09;;;12.16;53.70
36234;BME280;43467;50.890;5.982;2024-03-02T10:14:37;98697.00;;;12.23;53.64
36234;BME280;43467;50.890;5.982;2024-03-02T10:17:04;98693.03;;;12.29;53.71
36234;BME280;43467;50.890;5.982;2024-03-02T10:19:30;98698.22;;;12.30;53.55
36234;BME280;43467;50.890;5.982;2024-03-02T10:21:58;98690.47;;;12.16;52.80
36234;BME280;43467;50.890;5.982;2024-03-02T10:24:25;98695.41;;;12.09;53.06
36234;BME280;43467;50.890;5.982;2024-03-02T10:26:51;98692.00;;;12.07;52.67
36234;BME280;43467;50.890;5.982;2024-03-02T10:29:17;98692.94;;;11.95;52.73
36234;BME280;43467;50.890;5.982;2024-03-02T10:31:46;98694.81;;;12.06;53.17
36234;BME280;43467;50.890;5.982;2024-03-02T10:34:12;98685.66;;;12.10;52.26
36234;BME280;43467;50.890;5.982;2024-03-02T10:36:41;98686.84;;;12.06;52.31
36234;BME280;43467;50.890;5.982;2024-03-02T10:39:08;98690.44;;;12.05;52.63
36234;BME280;43467;50.890;5.982;2024-03-02T10:41:37;98671.88;;;12.05;52.87
36234;BME280;43467;50.890;5.982;2024-03-02T10:44:05;98675.41;;;12.17;52.94
36234;BME280;43467;50.890;5.982;2024-03-02T10:46:32;98674.56;;;12.27;53.31
36234;BME280;43467;50.890;5.982;2024-03-02T10:48:58;98669.41;;;12.37;52.67
36234;BME280;43467;50.890;5.982;2024-03-02T10:51:25;98680.16;;;12.46;53.00
36234;BME280;43467;50.890;5.982;2024-03-02T10:53:52;98671.81;;;12.40;52.50
36234;BME280;43467;50.890;5.982;2024-03-02T10:56:22;98670.84;;;12.41;51.73
36234;BME280;43467;50.890;5.982;2024-03-02T10:58:58;98667.09;;;12.43;51.80
36234;BME280;43467;50.890;5.982;2024-03-02T11:01:26;98663.13;;;12.49;51.78
36234;BME280;43467;50.890;5.982;2024-03-02T11:03:53;98670.38;;;12.58;51.63
36234;BME280;43467;50.890;5.982;2024-03-02T11:06:20;98665.78;;;12.49;51.54
36234;BME280;43467;50.890;5.982;2024-03-02T11:08:48;98663.72;;;12.52;51.71
36234;BME280;43467;50.890;5.982;2024-03-02T11:11:16;98659.63;;;12.48;50.61
36234;BME280;43467;50.890;5.982;2024-03-02T11:13:49;98659.13;;;12.43;51.70
36234;BME280;43467;50.890;5.982;2024-03-02T11:16:31;98652.03;;;12.44;51.24
36234;BME280;43467;50.890;5.982;2024-03-02T11:19:03;98660.72;;;12.57;51.78
36234;BME280;43467;50.890;5.982;2024-03-02T11:21:32;98651.91;;;12.68;50.85
36234;BME280;43467;50.890;5.982;2024-03-02T11:23:58;98651.41;;;12.74;50.38
36234;BME280;43467;50.890;5.982;2024-03-02T11:26:23;98656.00;;;12.83;50.23
36234;BME280;43467;50.890;5.982;2024-03-02T11:28:49;98647.56;;;12.78;50.08
36234;BME280;43467;50.890;5.982;2024-03-02T11:31:15;98647.16;;;12.93;51.22
36234;BME280;43467;50.890;5.982;2024-03-02T11:33:40;98643.88;;;13.01;50.20
36234;BME280;43467;50.890;5.982;2024-03-02T11:36:07;98630.97;;;13.08;50.52
36234;BME280;43467;50.890;5.982;2024-03-02T11:38:34;98627.72;;;13.04;50.95
36234;BME280;43467;50.890;5.982;2024-03-02T11:41:01;98625.91;;;13.16;50.67
36234;BME280;43467;50.890;5.982;2024-03-02T11:43:31;98629.22;;;13.29;51.00
36234;BME280;43467;50.890;5.982;2024-03-02T11:45:59;98622.00;;;13.31;49.73
36234;BME280;43467;50.890;5.982;2024-03-02T11:48:25;98608.06;;;13.38;50.02
36234;BME280;43467;50.890;5.982;2024-03-02T11:50:51;98599.81;;;13.41;50.11
36234;BME280;43467;50.890;5.982;2024-03-02T11:53:18;98600.03;;;13.49;50.47
36234;BME280;43467;50.890;5.982;2024-03-02T11:55:44;98602.31;;;13.54;49.60
36234;BME280;43467;50.890;5.982;2024-03-02T11:58:13;98605.94;;;13.53;49.25
36234;BME280;43467;50.890;5.982;2024-03-02T12:00:39;98585.69;;;13.62;49.79
36234;BME280;43467;50.890;5.982;2024-03-02T12:03:09;98585.91;;;13.70;49.64
36234;BME280;43467;50.890;5.982;2024-03-02T12:05:37;98578.00;;;13.79;48.95
36234;BME280;43467;50.890;5.982;2024-03-02T12:08:04;98582.09;;;13.83;48.83
36234;BME280;43467;50.890;5.982;2024-03-02T12:10:31;98571.31;;;13.85;48.21
36234;BME280;43467;50.890;5.982;2024-03-02T12:13:06;98570.09;;;13.89;48.12
36234;BME280;43467;50.890;5.982;2024-03-02T12:15:34;98570.28;;;13.97;48.67
36234;BME280;43467;50.890;5.982;2024-03-02T12:18:01;98569.47;;;14.06;49.02
36234;BME280;43467;50.890;5.982;2024-03-02T12:20:31;98569.88;;;14.02;47.87
36234;BME280;43467;50.890;5.982;2024-03-02T12:23:01;98572.97;;;14.07;48.31
36234;BME280;43467;50.890;5.982;2024-03-02T12:25:28;98576.06;;;14.12;48.83
36234;BME280;43467;50.890;5.982;2024-03-02T12:27:55;98563.34;;;14.15;48.52
36234;BME280;43467;50.890;5.982;2024-03-02T12:30:21;98566.19;;;14.23;48.58
36234;BME280;43467;50.890;5.982;2024-03-02T12:32:48;98563.00;;;14.29;48.37
36234;BME280;43467;50.890;5.982;2024-03-02T12:35:14;98566.31;;;14.43;48.39
36234;BME280;43467;50.890;5.982;2024-03-02T12:37:48;98559.59;;;14.48;47.90
36234;BME280;43467;50.890;5.982;2024-03-02T12:40:14;98558.06;;;14.55;47.83
36234;BME280;43467;50.890;5.982;2024-03-02T12:42:40;98559.31;;;14.51;47.13
36234;BME280;43467;50.890;5.982;2024-03-02T12:45:07;98553.19;;;14.60;46.97
36234;BME280;43467;50.890;5.982;2024-03-02T12:47:34;98555.72;;;14.71;47.05
36234;BME280;43467;50.890;5.982;2024-03-02T12:50:00;98554.91;;;14.71;46.63
36234;BME280;43467;50.890;5.982;2024-03-02T12:52:26;98559.25;;;14.81;47.43
36234;BME280;43467;50.890;5.982;2024-03-02T12:54:51;98549.88;;;14.87;46.82
36234;BME280;43467;50.890;5.982;2024-03-02T12:57:20;98550.88;;;15.05;47.13
36234;BME280;43467;50.890;5.982;2024-03-02T12:59:47;98537.56;;;15.15;47.30
36234;BME280;43467;50.890;5.982;2024-03-02T13:02:19;98547.09;;;15.17;46.34
36234;BME280;43467;50.890;5.982;2024-03-02T13:04:52;98555.38;;;15.33;47.03
36234;BME280;43467;50.890;5.982;2024-03-02T13:07:20;98538.41;;;15.44;45.98
36234;BME280;43467;50.890;5.982;2024-03-02T13:09:45;98544.03;;;15.51;45.98